Pagrindinis puslapis
METAR-TAF:

METAR-TAF

Oro uostai :

Tarauaka, Akrė, Brazilija

platuma: 08-10S, ilguma: 070-46W, Aukštis: 190 m

Dabartinis oras

Ataskaita buvo paskelbta 1 valandą ir 18 minutes, ne 22:00 UTC
Vėjas 9 kt iš Šiaurės Rytų, svyruoja nuo Šiaurės/Šiaurės Rytų ir Rytų
Temperatūra 28°C
Drėgmė 84%
Slėgis 1008 hPa
Matomumas 10 km arba daugiau
Išsisklaidę debesys ne aukštis 3500 ft
Su prošvaistėmis ne aukštis 4200 ft

METAR: SBTK 212200Z AUTO 05009KT 020V080 9999 SCT035 BKN042 28/25 Q1008

Laikas: 18:18 (23:18 UTC)


TAF: trūkstamas

Orai ataskaitas ir orų prognozės (METAR, TAF).

turimą stotys yra geltonos ir raudonos taškus žemėlapyje.

Perkelti pele per norėdami pamatyti stoties vardą.

Tada spustelėkite, norėdami matyti oro stebėjimo ir prognozės.

Norėdami pakeisti žemėlapį: spustelėkite ant žalios mygtukų su juodo kryžiaus žemyn,; žalią mygtuką su brūkšneliu, jei norite nutolinti; arba žalių rodyklių gretimoms žemėlapius.


METAR-TAF: